Time;durP1;ratioP1;P1;durP2;ratioP2;P2;SDS_P1;SDS_P2;PMS_P1;PMS_P2;Temp;Humidity;BMP_temperature;BMP_pressure;BME280_temperature;BME280_humidity;BME280_pressure;Samples;Min_cycle;Max_cycle;Signal;HPM_P1;HPM_P2
2023/12/20 00:01:11;;;;;;;11.82;2.30;;;;;;;;;;4992774;28;20046;-70
2023/12/20 00:03:37;;;;;;;13.70;1.75;;;;;;;;;;4992849;28;20054;-70
2023/12/20 00:06:03;;;;;;;13.02;2.10;;;;;;;;;;4992474;28;20647;-70
2023/12/20 00:08:30;;;;;;;10.50;1.95;;;;;;;;;;4992793;28;20042;-70
2023/12/20 00:10:56;;;;;;;16.48;2.33;;;;;;;;;;4991483;28;20050;-70
2023/12/20 00:13:22;;;;;;;11.25;2.28;;;;;;;;;;4990637;28;20077;-70
2023/12/20 00:15:48;;;;;;;14.10;2.78;;;;;;;;;;4992448;28;20051;-70
2023/12/20 00:18:14;;;;;;;19.10;4.82;;;;;;;;;;4993126;28;20042;-70
2023/12/20 00:20:40;;;;;;;12.93;3.13;;;;;;;;;;5011539;28;20140;-71
2023/12/20 00:23:07;;;;;;;17.50;2.72;;;;;;;;;;5010502;28;20046;-70
2023/12/20 00:25:34;;;;;;;18.55;2.40;;;;;;;;;;5006168;28;20064;-70
2023/12/20 00:28:00;;;;;;;17.05;6.10;;;;;;;;;;4991949;28;20046;-70
2023/12/20 00:30:26;;;;;;;19.45;2.63;;;;;;;;;;4992050;28;20064;-70
2023/12/20 00:32:52;;;;;;;11.27;1.98;;;;;;;;;;4992166;28;20113;-70
2023/12/20 00:35:19;;;;;;;16.65;2.33;;;;;;;;;;4991864;28;20046;-70
2023/12/20 00:37:45;;;;;;;15.45;2.45;;;;;;;;;;4990946;28;20038;-70
2023/12/20 00:40:11;;;;;;;11.80;1.88;;;;;;;;;;4992138;28;20053;-70
2023/12/20 00:42:37;;;;;;;8.73;2.30;;;;;;;;;;4992276;28;20380;-70
2023/12/20 00:45:04;;;;;;;18.83;3.05;;;;;;;;;;4991738;28;20132;-70
2023/12/20 00:47:31;;;;;;;12.25;2.35;;;;;;;;;;4990531;28;20417;-70
2023/12/20 00:49:57;;;;;;;19.27;2.55;;;;;;;;;;4991939;28;20127;-70
2023/12/20 00:52:24;;;;;;;16.55;2.47;;;;;;;;;;4990167;28;20058;-70
2023/12/20 00:54:51;;;;;;;14.02;2.40;;;;;;;;;;4991944;28;20043;-70
2023/12/20 00:57:18;;;;;;;17.23;2.35;;;;;;;;;;4991935;28;20348;-70
2023/12/20 00:59:44;;;;;;;13.10;2.15;;;;;;;;;;4991120;28;20126;-70
2023/12/20 01:02:10;;;;;;;10.10;2.13;;;;;;;;;;4990755;28;20069;-70
2023/12/20 01:04:36;;;;;;;16.75;2.38;;;;;;;;;;4991948;28;20046;-70
2023/12/20 01:07:02;;;;;;;11.43;2.08;;;;;;;;;;4991529;28;20612;-70
2023/12/20 01:09:28;;;;;;;16.95;2.70;;;;;;;;;;4991815;28;20046;-70
2023/12/20 01:11:54;;;;;;;19.10;2.60;;;;;;;;;;4990319;28;20117;-70
2023/12/20 01:14:20;;;;;;;18.40;2.38;;;;;;;;;;4991225;28;20121;-70
2023/12/20 01:16:48;;;;;;;14.88;2.20;;;;;;;;;;4990336;28;20038;-70
2023/12/20 01:19:14;;;;;;;17.45;2.30;;;;;;;;;;5002019;28;20521;-70
2023/12/20 01:21:41;;;;;;;15.55;2.63;;;;;;;;;;5010993;28;20044;-70
2023/12/20 01:24:07;;;;;;;19.30;2.33;;;;;;;;;;5011253;28;20528;-70
2023/12/20 01:26:33;;;;;;;16.90;2.40;;;;;;;;;;4997269;28;20134;-70
2023/12/20 01:28:59;;;;;;;16.95;2.85;;;;;;;;;;4990968;28;20053;-70
2023/12/20 01:31:27;;;;;;;14.57;2.80;;;;;;;;;;4991253;28;20065;-70
2023/12/20 01:33:53;;;;;;;17.92;2.50;;;;;;;;;;4991245;28;20046;-70
2023/12/20 01:36:19;;;;;;;13.68;2.53;;;;;;;;;;4990131;28;20524;-70
2023/12/20 01:38:45;;;;;;;16.35;2.50;;;;;;;;;;4990297;28;20050;-70
2023/12/20 01:41:11;;;;;;;14.52;2.58;;;;;;;;;;4991580;28;20045;-70
2023/12/20 01:43:37;;;;;;;17.38;2.83;;;;;;;;;;4991146;28;20137;-70
2023/12/20 01:46:03;;;;;;;15.93;2.67;;;;;;;;;;4991241;28;20046;-70
2023/12/20 01:48:32;;;;;;;23.05;2.42;;;;;;;;;;4991498;28;20046;-70
2023/12/20 01:50:58;;;;;;;17.17;2.60;;;;;;;;;;4991094;28;20133;-70
2023/12/20 01:53:26;;;;;;;14.88;2.13;;;;;;;;;;4989934;28;20498;-70
2023/12/20 01:55:53;;;;;;;25.20;2.90;;;;;;;;;;4991351;28;20125;-70
2023/12/20 01:58:19;;;;;;;23.27;2.92;;;;;;;;;;4989739;28;20042;-70
2023/12/20 02:00:46;;;;;;;18.27;3.00;;;;;;;;;;4991260;28;20113;-70
2023/12/20 02:03:12;;;;;;;15.90;2.70;;;;;;;;;;4991452;28;20046;-70
2023/12/20 02:05:38;;;;;;;20.45;3.30;;;;;;;;;;4990849;28;20416;-70
2023/12/20 02:08:05;;;;;;;14.95;2.65;;;;;;;;;;4991382;28;20034;-70
2023/12/20 02:10:31;;;;;;;16.45;2.63;;;;;;;;;;4991221;28;20061;-70
2023/12/20 02:12:58;;;;;;;19.50;2.85;;;;;;;;;;4992280;28;20046;-70
2023/12/20 02:15:24;;;;;;;14.07;2.88;;;;;;;;;;4994864;28;20053;-70
2023/12/20 02:17:50;;;;;;;15.40;2.65;;;;;;;;;;4994771;28;20042;-70
2023/12/20 02:20:17;;;;;;;15.88;2.63;;;;;;;;;;5013120;28;20088;-70
2023/12/20 02:22:43;;;;;;;20.80;4.00;;;;;;;;;;5013114;28;20052;-70
2023/12/20 02:25:09;;;;;;;17.02;2.75;;;;;;;;;;5011727;28;20042;-70
2023/12/20 02:27:35;;;;;;;22.45;3.42;;;;;;;;;;4992838;28;20064;-70
2023/12/20 02:30:02;;;;;;;19.10;2.53;;;;;;;;;;4994125;28;20125;-70
2023/12/20 02:32:29;;;;;;;25.38;5.03;;;;;;;;;;4994339;28;20042;-70
2023/12/20 02:34:56;;;;;;;21.90;3.10;;;;;;;;;;4993930;28;20065;-70
2023/12/20 02:37:22;;;;;;;18.90;2.40;;;;;;;;;;4994315;28;20085;-70
2023/12/20 02:39:48;;;;;;;24.70;3.20;;;;;;;;;;4992686;28;20044;-70
2023/12/20 02:42:14;;;;;;;17.60;3.03;;;;;;;;;;4993959;28;20108;-70
2023/12/20 02:44:40;;;;;;;18.02;3.25;;;;;;;;;;4991903;28;20072;-70
2023/12/20 02:47:06;;;;;;;17.98;3.28;;;;;;;;;;4992833;28;20076;-70
2023/12/20 02:49:32;;;;;;;23.23;3.97;;;;;;;;;;4992210;28;20070;-70
2023/12/20 02:51:58;;;;;;;20.33;3.30;;;;;;;;;;4991254;28;20049;-70
2023/12/20 02:54:24;;;;;;;19.55;2.78;;;;;;;;;;4992601;28;20405;-70
2023/12/20 02:56:50;;;;;;;23.65;3.80;;;;;;;;;;4992422;28;20034;-70
2023/12/20 02:59:16;;;;;;;24.77;3.58;;;;;;;;;;4992643;28;20045;-70
2023/12/20 03:01:44;;;;;;;24.90;3.72;;;;;;;;;;4991124;28;20121;-70
2023/12/20 03:04:10;;;;;;;23.50;2.95;;;;;;;;;;4990961;28;20047;-70
2023/12/20 03:06:36;;;;;;;26.27;3.58;;;;;;;;;;4992495;28;20062;-70
2023/12/20 03:09:02;;;;;;;22.15;4.38;;;;;;;;;;4992267;28;20512;-70
2023/12/20 03:11:28;;;;;;;20.70;3.45;;;;;;;;;;4990705;28;20050;-70
2023/12/20 03:13:55;;;;;;;29.02;3.70;;;;;;;;;;4992377;28;20046;-70
2023/12/20 03:16:20;;;;;;;26.90;3.92;;;;;;;;;;4992349;28;20038;-70
2023/12/20 03:18:46;;;;;;;22.17;3.33;;;;;;;;;;4997011;28;20052;-70
2023/12/20 03:21:12;;;;;;;15.73;2.65;;;;;;;;;;5011771;28;20468;-70
2023/12/20 03:23:39;;;;;;;30.08;4.05;;;;;;;;;;5011415;28;20092;-70
2023/12/20 03:26:07;;;;;;;20.25;3.63;;;;;;;;;;5001341;28;20038;-70
2023/12/20 03:28:33;;;;;;;32.75;4.20;;;;;;;;;;4991872;28;20038;-70
2023/12/20 03:30:59;;;;;;;23.92;4.78;;;;;;;;;;4992226;28;20452;-70
2023/12/20 03:33:25;;;;;;;27.67;3.95;;;;;;;;;;4991742;28;20046;-70
2023/12/20 03:35:51;;;;;;;25.17;3.88;;;;;;;;;;4992276;28;20046;-70
2023/12/20 03:38:17;;;;;;;27.15;4.25;;;;;;;;;;4990547;28;20397;-70
2023/12/20 03:40:43;;;;;;;32.28;4.85;;;;;;;;;;4991258;28;20405;-70
2023/12/20 03:43:09;;;;;;;25.35;3.72;;;;;;;;;;4990355;28;20038;-70
2023/12/20 03:45:36;;;;;;;22.70;4.38;;;;;;;;;;4991623;28;20409;-70
2023/12/20 03:48:02;;;;;;;28.77;3.58;;;;;;;;;;4989729;28;20369;-70
2023/12/20 03:50:28;;;;;;;27.83;4.25;;;;;;;;;;4991808;28;20046;-70
2023/12/20 03:52:54;;;;;;;29.70;4.43;;;;;;;;;;4992034;28;20096;-70
2023/12/20 03:55:19;;;;;;;29.40;4.32;;;;;;;;;;4991299;28;20046;-70
2023/12/20 03:57:46;;;;;;;31.60;4.38;;;;;;;;;;4990298;28;20445;-70
2023/12/20 04:00:12;;;;;;;24.55;3.92;;;;;;;;;;4991565;28;20042;-70
2023/12/20 04:02:38;;;;;;;28.40;4.47;;;;;;;;;;4989549;28;20127;-70
2023/12/20 04:05:05;;;;;;;25.00;3.65;;;;;;;;;;4990242;28;20052;-70
2023/12/20 04:07:31;;;;;;;25.70;4.45;;;;;;;;;;4991322;28;20096;-70
2023/12/20 04:09:57;;;;;;;26.70;4.22;;;;;;;;;;4991234;28;20046;-70
2023/12/20 04:12:23;;;;;;;22.05;5.20;;;;;;;;;;4991522;28;20046;-70
2023/12/20 04:14:49;;;;;;;32.35;4.22;;;;;;;;;;4991213;28;20042;-70
2023/12/20 04:17:16;;;;;;;27.63;4.53;;;;;;;;;;4991208;28;20109;-70
2023/12/20 04:19:42;;;;;;;32.72;4.22;;;;;;;;;;5004830;28;20042;-70
2023/12/20 04:22:08;;;;;;;29.60;5.03;;;;;;;;;;5009416;28;20128;-70
2023/12/20 04:24:34;;;;;;;32.08;5.22;;;;;;;;;;5010803;28;20514;-70
2023/12/20 04:27:00;;;;;;;30.30;4.00;;;;;;;;;;4992657;28;20050;-70
2023/12/20 04:29:26;;;;;;;23.75;4.13;;;;;;;;;;4990895;28;20109;-70
2023/12/20 04:31:52;;;;;;;39.80;4.20;;;;;;;;;;4990967;28;20436;-70
2023/12/20 04:34:18;;;;;;;24.45;4.25;;;;;;;;;;4972294;28;20482;-70
2023/12/20 04:36:44;;;;;;;33.20;4.93;;;;;;;;;;4989645;28;20038;-70
2023/12/20 04:39:11;;;;;;;33.00;5.40;;;;;;;;;;4990844;28;20045;-70
2023/12/20 04:41:37;;;;;;;37.42;4.63;;;;;;;;;;4990537;28;20050;-70
2023/12/20 04:44:03;;;;;;;26.73;4.65;;;;;;;;;;4990592;28;20401;-70
2023/12/20 04:46:29;;;;;;;32.45;4.75;;;;;;;;;;4990487;28;20049;-70
2023/12/20 04:48:55;;;;;;;33.05;4.72;;;;;;;;;;4990159;28;20068;-70
2023/12/20 04:51:21;;;;;;;26.73;4.47;;;;;;;;;;4990417;28;20081;-70
2023/12/20 04:53:47;;;;;;;25.58;4.47;;;;;;;;;;4989040;28;20205;-70
2023/12/20 04:56:13;;;;;;;31.85;4.40;;;;;;;;;;4988721;28;20038;-70
2023/12/20 04:58:39;;;;;;;29.05;4.47;;;;;;;;;;4990584;28;20042;-70
2023/12/20 05:01:06;;;;;;;28.23;4.40;;;;;;;;;;4990455;28;20034;-70
2023/12/20 05:03:33;;;;;;;34.92;4.55;;;;;;;;;;4990222;28;20045;-70
2023/12/20 05:05:59;;;;;;;23.58;4.00;;;;;;;;;;4990460;28;20108;-70
2023/12/20 05:08:25;;;;;;;23.75;3.92;;;;;;;;;;4990378;28;20412;-70
2023/12/20 05:10:51;;;;;;;27.10;4.43;;;;;;;;;;4990177;28;20134;-70
2023/12/20 05:13:17;;;;;;;26.30;4.60;;;;;;;;;;4990222;28;20035;-70
2023/12/20 05:15:43;;;;;;;26.80;4.47;;;;;;;;;;4990232;28;20038;-70
2023/12/20 05:18:09;;;;;;;28.08;4.10;;;;;;;;;;4991421;28;20456;-70
2023/12/20 05:20:35;;;;;;;29.13;5.00;;;;;;;;;;5009955;28;20038;-70
2023/12/20 05:23:01;;;;;;;29.90;4.65;;;;;;;;;;5010044;28;20320;-70
2023/12/20 05:25:27;;;;;;;25.23;4.53;;;;;;;;;;5003082;28;20278;-70
2023/12/20 05:27:53;;;;;;;26.00;4.25;;;;;;;;;;4990294;28;20085;-70
2023/12/20 05:30:19;;;;;;;28.38;4.13;;;;;;;;;;4988662;28;20069;-70
2023/12/20 05:32:45;;;;;;;28.63;5.57;;;;;;;;;;4989620;28;20416;-70
2023/12/20 05:35:11;;;;;;;27.75;4.20;;;;;;;;;;4990233;28;20053;-70
2023/12/20 05:37:37;;;;;;;22.30;4.65;;;;;;;;;;4988781;28;20046;-70
2023/12/20 05:40:04;;;;;;;30.40;4.13;;;;;;;;;;4988228;28;20137;-70
2023/12/20 05:42:30;;;;;;;28.75;4.10;;;;;;;;;;4990736;28;20077;-70
2023/12/20 05:44:56;;;;;;;34.47;5.32;;;;;;;;;;4991768;28;20052;-70
2023/12/20 05:47:22;;;;;;;26.40;5.22;;;;;;;;;;4994662;28;20505;-69
2023/12/20 05:49:50;;;;;;;34.63;4.82;;;;;;;;;;4997578;28;20046;-69
2023/12/20 05:52:16;;;;;;;32.53;4.70;;;;;;;;;;5014890;28;20050;-70
2023/12/20 05:54:42;;;;;;;26.52;4.63;;;;;;;;;;5014240;28;20045;-70
2023/12/20 05:57:08;;;;;;;24.70;4.05;;;;;;;;;;5014604;28;20065;-70
2023/12/20 05:59:34;;;;;;;26.02;3.60;;;;;;;;;;5014009;28;20069;-70
2023/12/20 06:02:00;;;;;;;24.85;4.07;;;;;;;;;;5014226;28;20403;-70
2023/12/20 06:04:26;;;;;;;28.30;4.60;;;;;;;;;;5014497;28;20148;-70
2023/12/20 06:06:52;;;;;;;21.70;3.85;;;;;;;;;;5014066;28;20080;-70
2023/12/20 06:09:18;;;;;;;24.17;3.97;;;;;;;;;;5013767;28;20049;-70
2023/12/20 06:11:45;;;;;;;28.67;4.97;;;;;;;;;;5014465;28;20034;-70
2023/12/20 06:14:11;;;;;;;20.60;4.18;;;;;;;;;;5014246;28;20045;-70
2023/12/20 06:16:37;;;;;;;25.45;4.03;;;;;;;;;;5014250;28;20118;-70
2023/12/20 06:19:03;;;;;;;21.00;3.92;;;;;;;;;;5014304;28;20040;-70
2023/12/20 06:21:29;;;;;;;25.13;4.68;;;;;;;;;;5014514;28;20408;-70
2023/12/20 06:23:56;;;;;;;30.73;4.53;;;;;;;;;;5013964;28;20121;-70
2023/12/20 06:26:22;;;;;;;31.02;4.78;;;;;;;;;;5000707;28;20077;-70
2023/12/20 06:28:48;;;;;;;24.92;3.70;;;;;;;;;;4994720;28;20042;-70
2023/12/20 06:31:14;;;;;;;23.50;4.07;;;;;;;;;;4994029;28;20056;-70
2023/12/20 06:33:41;;;;;;;30.63;5.30;;;;;;;;;;4994673;28;20058;-70
2023/12/20 06:36:08;;;;;;;35.50;4.22;;;;;;;;;;4994497;28;20053;-70
2023/12/20 06:38:34;;;;;;;26.73;4.38;;;;;;;;;;4994224;28;20084;-70
2023/12/20 06:41:00;;;;;;;24.20;4.20;;;;;;;;;;4994488;28;20442;-70
2023/12/20 06:43:26;;;;;;;25.88;4.25;;;;;;;;;;4994638;28;20046;-70
2023/12/20 06:45:52;;;;;;;27.60;4.28;;;;;;;;;;4993786;28;20053;-70
2023/12/20 06:48:18;;;;;;;24.10;4.88;;;;;;;;;;4994340;28;20038;-70
2023/12/20 06:50:44;;;;;;;29.27;4.93;;;;;;;;;;4994332;28;20046;-70
2023/12/20 06:53:10;;;;;;;20.83;4.30;;;;;;;;;;4993791;28;20047;-70
2023/12/20 06:55:37;;;;;;;33.63;4.85;;;;;;;;;;4993965;28;20042;-70
2023/12/20 06:58:04;;;;;;;30.73;4.22;;;;;;;;;;4993144;28;20169;-70
2023/12/20 07:00:30;;;;;;;32.63;4.78;;;;;;;;;;4993885;28;20046;-70
2023/12/20 07:02:56;;;;;;;30.30;3.90;;;;;;;;;;4994222;28;20038;-70
2023/12/20 07:05:23;;;;;;;26.98;4.57;;;;;;;;;;4993788;28;20046;-70
2023/12/20 07:07:49;;;;;;;33.40;4.30;;;;;;;;;;4993289;28;20050;-70
2023/12/20 07:10:15;;;;;;;31.27;4.78;;;;;;;;;;4993620;28;20038;-70
2023/12/20 07:12:41;;;;;;;36.75;4.75;;;;;;;;;;4992721;28;20047;-70
2023/12/20 07:15:07;;;;;;;33.75;4.43;;;;;;;;;;4993216;28;20124;-70
2023/12/20 07:17:34;;;;;;;28.50;4.22;;;;;;;;;;4993696;28;20038;-70
2023/12/20 07:20:03;;;;;;;19.58;4.28;;;;;;;;;;5010072;28;20522;-70
2023/12/20 07:22:34;;;;;;;31.10;5.10;;;;;;;;;;5012895;28;20049;-70
2023/12/20 07:25:00;;;;;;;28.63;4.22;;;;;;;;;;5012017;28;20599;-70
2023/12/20 07:27:27;;;;;;;27.60;4.28;;;;;;;;;;4992021;28;20397;-70
2023/12/20 07:29:53;;;;;;;24.58;4.13;;;;;;;;;;4992899;28;20054;-69
2023/12/20 07:32:19;;;;;;;36.10;4.93;;;;;;;;;;4993618;28;20140;-69
2023/12/20 07:34:45;;;;;;;28.10;4.78;;;;;;;;;;5003938;28;20034;-69
2023/12/20 07:37:11;;;;;;;28.00;4.72;;;;;;;;;;5012543;28;20049;-69
2023/12/20 07:39:40;;;;;;;26.50;5.35;;;;;;;;;;4995080;28;20085;-67
2023/12/20 07:42:07;;;;;;;34.95;4.88;;;;;;;;;;4993045;28;20474;-65
2023/12/20 07:44:33;;;;;;;27.45;4.38;;;;;;;;;;4997758;28;20042;-64
2023/12/20 07:47:01;;;;;;;30.30;4.20;;;;;;;;;;5002678;28;20038;-64
2023/12/20 07:49:27;;;;;;;24.20;5.10;;;;;;;;;;4999254;28;20138;-64
2023/12/20 07:51:53;;;;;;;30.42;4.15;;;;;;;;;;4994910;28;20125;-64
2023/12/20 07:54:19;;;;;;;24.80;4.85;;;;;;;;;;4995980;28;20049;-65
2023/12/20 07:56:46;;;;;;;25.63;4.25;;;;;;;;;;5012268;28;20034;-64
2023/12/20 07:59:12;;;;;;;30.10;4.82;;;;;;;;;;5000790;28;20045;-64
2023/12/20 08:01:38;;;;;;;32.20;5.43;;;;;;;;;;4992141;28;20046;-67
2023/12/20 08:04:04;;;;;;;30.10;4.88;;;;;;;;;;4999929;28;20497;-67
2023/12/20 08:06:30;;;;;;;29.38;4.15;;;;;;;;;;4990429;28;20112;-68
2023/12/20 08:08:56;;;;;;;30.63;4.55;;;;;;;;;;4998666;28;20412;-67
2023/12/20 08:11:22;;;;;;;32.90;4.68;;;;;;;;;;5011087;28;20084;-67
2023/12/20 08:13:48;;;;;;;26.88;5.00;;;;;;;;;;5003709;28;20042;-67
2023/12/20 08:16:15;;;;;;;29.40;3.90;;;;;;;;;;5006447;28;20045;-67
2023/12/20 08:18:41;;;;;;;37.85;5.07;;;;;;;;;;5008971;28;20447;-67
2023/12/20 08:21:08;;;;;;;25.17;4.55;;;;;;;;;;5009222;28;20041;-67
2023/12/20 08:23:34;;;;;;;30.35;4.55;;;;;;;;;;5005968;28;20065;-67
2023/12/20 08:26:04;;;;;;;31.10;4.70;;;;;;;;;;4990220;28;20073;-67
2023/12/20 08:28:31;;;;;;;28.27;4.22;;;;;;;;;;5002349;28;20057;-68
2023/12/20 08:30:57;;;;;;;30.60;4.55;;;;;;;;;;4989080;28;20046;-68
2023/12/20 08:33:23;;;;;;;21.60;3.95;;;;;;;;;;5003651;28;20141;-67
2023/12/20 08:35:49;;;;;;;35.58;5.90;;;;;;;;;;5000143;28;20107;-68
2023/12/20 08:38:16;;;;;;;29.38;4.90;;;;;;;;;;5009948;28;20552;-68
2023/12/20 08:40:42;;;;;;;31.63;5.35;;;;;;;;;;4990710;28;20114;-68
2023/12/20 08:43:08;;;;;;;27.83;4.60;;;;;;;;;;4993472;28;20050;-68
2023/12/20 08:45:35;;;;;;;22.90;5.25;;;;;;;;;;5007717;28;20132;-68
2023/12/20 08:48:01;;;;;;;30.35;5.85;;;;;;;;;;5005652;28;20085;-68
2023/12/20 08:50:27;;;;;;;27.35;5.30;;;;;;;;;;4991723;28;20050;-67
2023/12/20 08:52:53;;;;;;;33.83;5.03;;;;;;;;;;4988946;28;20042;-67
2023/12/20 08:55:20;;;;;;;26.85;5.20;;;;;;;;;;5007224;28;20160;-67
2023/12/20 08:57:46;;;;;;;27.17;4.22;;;;;;;;;;5010241;28;20049;-68
2023/12/20 09:00:13;;;;;;;24.75;4.22;;;;;;;;;;4994506;28;20043;-68
2023/12/20 09:02:39;;;;;;;27.40;3.97;;;;;;;;;;4989687;28;20049;-68
2023/12/20 09:05:05;;;;;;;30.95;4.55;;;;;;;;;;5003679;28;20104;-68
2023/12/20 09:07:31;;;;;;;29.17;3.97;;;;;;;;;;5008728;28;20176;-68
2023/12/20 09:09:58;;;;;;;31.13;4.32;;;;;;;;;;5006272;28;20049;-68
2023/12/20 09:12:24;;;;;;;35.78;5.15;;;;;;;;;;5002749;28;20585;-68
2023/12/20 09:14:51;;;;;;;27.13;5.13;;;;;;;;;;5002029;28;20064;-69
2023/12/20 09:17:18;;;;;;;17.83;3.35;;;;;;;;;;4996167;28;20089;-67
2023/12/20 09:19:45;;;;;;;25.73;4.07;;;;;;;;;;4973056;28;20050;-67
2023/12/20 09:22:11;;;;;;;23.65;4.35;;;;;;;;;;4995231;28;20077;-66
2023/12/20 09:24:37;;;;;;;29.50;4.10;;;;;;;;;;5000924;28;20046;-67
2023/12/20 09:27:03;;;;;;;26.58;4.43;;;;;;;;;;4999341;28;20652;-67
2023/12/20 09:29:29;;;;;;;32.80;4.78;;;;;;;;;;4996310;28;20054;-67
2023/12/20 09:31:57;;;;;;;27.83;5.03;;;;;;;;;;4997726;28;20050;-67
2023/12/20 09:34:23;;;;;;;24.52;4.45;;;;;;;;;;4996792;28;20078;-67
2023/12/20 09:36:49;;;;;;;21.48;4.22;;;;;;;;;;4995991;28;20046;-68
2023/12/20 09:39:15;;;;;;;22.70;4.22;;;;;;;;;;5000757;28;20622;-68
2023/12/20 09:41:46;;;;;;;13.32;3.10;;;;;;;;;;5003361;28;20470;-68
2023/12/20 09:44:17;;;;;;;11.77;1.90;;;;;;;;;;5001191;28;20112;-68
2023/12/20 09:46:44;;;;;;;6.95;1.33;;;;;;;;;;5012888;28;20041;-68
2023/12/20 09:49:11;;;;;;;8.35;1.60;;;;;;;;;;5012482;28;20480;-68
2023/12/20 09:51:37;;;;;;;9.40;1.20;;;;;;;;;;5015190;28;20468;-67
2023/12/20 09:54:06;;;;;;;11.25;1.77;;;;;;;;;;5007212;28;20080;-67
2023/12/20 09:56:32;;;;;;;6.65;1.35;;;;;;;;;;4997152;28;20046;-68
2023/12/20 09:58:58;;;;;;;7.63;1.48;;;;;;;;;;4996956;28;20509;-67
2023/12/20 10:01:24;;;;;;;7.47;1.40;;;;;;;;;;5016044;28;20100;-67
2023/12/20 10:03:55;;;;;;;6.82;1.40;;;;;;;;;;5015970;28;20048;-67
2023/12/20 10:06:22;;;;;;;9.88;1.25;;;;;;;;;;4996542;28;20136;-63
2023/12/20 10:08:48;;;;;;;9.15;1.20;;;;;;;;;;4997401;28;20489;-63
2023/12/20 10:11:15;;;;;;;5.95;1.10;;;;;;;;;;4996750;28;20365;-63
2023/12/20 10:13:41;;;;;;;5.88;1.33;;;;;;;;;;4996637;28;20038;-63
2023/12/20 10:16:08;;;;;;;6.97;1.40;;;;;;;;;;4997407;28;20038;-63
2023/12/20 10:18:34;;;;;;;10.43;1.67;;;;;;;;;;4996946;28;20069;-63
2023/12/20 10:21:01;;;;;;;4.30;1.15;;;;;;;;;;4999114;28;20045;-63
2023/12/20 10:23:27;;;;;;;8.98;1.35;;;;;;;;;;5006712;28;20083;-62
2023/12/20 10:26:02;;;;;;;10.48;1.35;;;;;;;;;;5008936;28;20765;-62
2023/12/20 10:28:34;;;;;;;9.55;1.08;;;;;;;;;;5008542;28;20046;-65
2023/12/20 10:31:00;;;;;;;12.20;1.63;;;;;;;;;;4998155;28;20131;-66
2023/12/20 10:33:27;;;;;;;7.38;1.25;;;;;;;;;;4998524;28;20054;-70
2023/12/20 10:35:53;;;;;;;7.65;1.38;;;;;;;;;;5000451;28;20073;-70
2023/12/20 10:38:20;;;;;;;7.35;0.98;;;;;;;;;;5005927;28;20547;-68
2023/12/20 10:40:46;;;;;;;4.28;1.17;;;;;;;;;;4992466;28;20046;-70
2023/12/20 10:43:13;;;;;;;11.68;1.67;;;;;;;;;;5002312;28;20048;-69
2023/12/20 10:45:39;;;;;;;10.10;1.70;;;;;;;;;;5003114;28;20056;-70
2023/12/20 10:48:05;;;;;;;9.65;1.27;;;;;;;;;;4998141;28;20496;-69
2023/12/20 10:50:32;;;;;;;6.15;1.65;;;;;;;;;;4996469;28;20638;-69
2023/12/20 10:52:59;;;;;;;8.68;1.23;;;;;;;;;;5006039;28;20393;-68
2023/12/20 10:55:25;;;;;;;10.80;1.83;;;;;;;;;;5006068;28;20104;-69
2023/12/20 10:57:52;;;;;;;10.38;1.63;;;;;;;;;;4983809;28;20141;-68
2023/12/20 11:00:19;;;;;;;9.93;1.52;;;;;;;;;;4998890;28;20216;-69
2023/12/20 11:02:45;;;;;;;13.75;2.10;;;;;;;;;;5002383;28;20141;-68
2023/12/20 11:05:44;;;;;;;10.23;1.60;;;;;;;;;;5005600;28;20046;-68
2023/12/20 11:08:13;;;;;;;12.80;1.60;;;;;;;;;;4979383;28;20085;-70
2023/12/20 11:10:57;;;;;;;12.73;1.67;;;;;;;;;;4994886;28;20050;-68
2023/12/20 11:13:47;;;;;;;10.18;2.25;;;;;;;;;;5005652;28;20100;-68
2023/12/20 11:16:13;;;;;;;9.20;1.60;;;;;;;;;;4970531;28;20054;-70
2023/12/20 11:18:41;;;;;;;9.70;1.35;;;;;;;;;;5002135;28;20046;-68
2023/12/20 11:21:07;;;;;;;8.05;1.50;;;;;;;;;;4998642;28;20149;-71
2023/12/20 11:23:34;;;;;;;11.23;2.00;;;;;;;;;;4991523;28;20050;-71
2023/12/20 11:26:00;;;;;;;13.88;2.13;;;;;;;;;;4995286;28;20054;-70
2023/12/20 11:28:27;;;;;;;9.07;1.67;;;;;;;;;;4986214;28;20050;-70
2023/12/20 11:30:54;;;;;;;13.43;1.67;;;;;;;;;;5009422;28;20055;-69
2023/12/20 11:33:27;;;;;;;10.23;1.70;;;;;;;;;;5004563;28;20481;-68
2023/12/20 11:35:56;;;;;;;10.77;1.85;;;;;;;;;;4991112;28;20502;-69
2023/12/20 11:38:22;;;;;;;12.40;1.65;;;;;;;;;;5002180;28;20033;-70
2023/12/20 11:40:52;;;;;;;14.55;1.90;;;;;;;;;;5010143;28;20046;-70
2023/12/20 11:43:52;;;;;;;11.75;2.08;;;;;;;;;;4999722;28;20921;-70
2023/12/20 11:46:18;;;;;;;16.33;2.40;;;;;;;;;;4957647;28;20061;-70
2023/12/20 11:48:45;;;;;;;11.68;1.98;;;;;;;;;;5004751;28;20379;-69
2023/12/20 11:51:11;;;;;;;12.27;2.25;;;;;;;;;;5007600;28;20485;-68
2023/12/20 11:53:38;;;;;;;13.48;2.60;;;;;;;;;;4993330;28;20556;-68
2023/12/20 11:56:04;;;;;;;12.30;1.48;;;;;;;;;;4995189;28;20406;-70
2023/12/20 11:58:31;;;;;;;16.02;2.13;;;;;;;;;;5006365;28;20132;-69
2023/12/20 12:00:57;;;;;;;9.85;1.67;;;;;;;;;;4996472;28;20048;-69
2023/12/20 12:03:23;;;;;;;12.43;1.77;;;;;;;;;;4998300;28;20034;-70
2023/12/20 12:05:50;;;;;;;13.13;1.58;;;;;;;;;;4995615;28;20490;-69
2023/12/20 12:08:16;;;;;;;11.85;1.90;;;;;;;;;;4990100;28;20046;-68
2023/12/20 12:10:43;;;;;;;12.00;2.53;;;;;;;;;;5002783;28;20080;-70
2023/12/20 12:13:09;;;;;;;13.63;2.33;;;;;;;;;;5010081;28;20647;-70
2023/12/20 12:15:36;;;;;;;11.85;2.13;;;;;;;;;;5008767;28;20065;-70
2023/12/20 12:18:02;;;;;;;12.55;1.75;;;;;;;;;;5008739;28;20049;-70
2023/12/20 12:20:28;;;;;;;13.70;2.15;;;;;;;;;;4994902;28;20504;-69
2023/12/20 12:23:01;;;;;;;16.80;2.55;;;;;;;;;;4993234;28;20038;-69
2023/12/20 12:25:29;;;;;;;13.02;2.17;;;;;;;;;;4991184;28;20696;-69
2023/12/20 12:27:55;;;;;;;21.05;2.35;;;;;;;;;;4988969;28;20417;-70
2023/12/20 12:30:22;;;;;;;12.05;2.30;;;;;;;;;;4998426;28;20054;-70
2023/12/20 12:32:48;;;;;;;15.27;2.25;;;;;;;;;;5006165;28;20731;-69
2023/12/20 12:35:14;;;;;;;12.35;2.33;;;;;;;;;;5001396;28;20463;-70
2023/12/20 12:37:41;;;;;;;15.50;2.60;;;;;;;;;;5004123;28;20041;-69
2023/12/20 12:40:10;;;;;;;14.57;2.60;;;;;;;;;;5004236;28;20140;-69
2023/12/20 12:42:36;;;;;;;10.35;2.20;;;;;;;;;;4993595;28;20033;-69
2023/12/20 12:45:02;;;;;;;8.93;1.75;;;;;;;;;;4999782;28;20042;-68
2023/12/20 12:47:28;;;;;;;8.20;1.70;;;;;;;;;;5002282;28;20046;-68
2023/12/20 12:49:55;;;;;;;12.82;2.35;;;;;;;;;;5000335;28;20049;-68
2023/12/20 12:52:21;;;;;;;9.75;2.20;;;;;;;;;;5000424;28;20396;-69
2023/12/20 12:54:47;;;;;;;12.70;2.55;;;;;;;;;;4996713;28;20125;-70
2023/12/20 12:57:14;;;;;;;11.95;1.83;;;;;;;;;;4995001;28;20041;-69
2023/12/20 12:59:41;;;;;;;8.93;1.80;;;;;;;;;;5006853;28;20401;-71
2023/12/20 13:02:08;;;;;;;15.57;1.85;;;;;;;;;;5000753;28;20524;-69
2023/12/20 13:04:34;;;;;;;12.18;1.90;;;;;;;;;;5001239;28;20073;-69
2023/12/20 13:07:00;;;;;;;11.55;1.60;;;;;;;;;;4975711;28;20046;-70
2023/12/20 13:09:26;;;;;;;11.98;2.00;;;;;;;;;;4989162;28;20552;-69
2023/12/20 13:11:52;;;;;;;10.95;2.00;;;;;;;;;;4995914;28;20899;-70
2023/12/20 13:14:18;;;;;;;9.63;1.73;;;;;;;;;;4989792;28;20607;-72
2023/12/20 13:16:45;;;;;;;12.48;2.20;;;;;;;;;;5005476;28;20421;-72
2023/12/20 13:19:11;;;;;;;12.45;2.33;;;;;;;;;;4985027;28;20038;-69
2023/12/20 13:21:37;;;;;;;12.93;1.92;;;;;;;;;;4998209;28;20381;-70
2023/12/20 13:24:04;;;;;;;11.27;1.88;;;;;;;;;;5003629;28;20042;-71
2023/12/20 13:26:30;;;;;;;11.75;1.80;;;;;;;;;;4991004;28;20144;-71
2023/12/20 13:28:56;;;;;;;12.93;1.92;;;;;;;;;;5005578;28;20131;-71
2023/12/20 13:31:22;;;;;;;10.40;1.55;;;;;;;;;;5002953;28;20073;-71
2023/12/20 13:33:48;;;;;;;12.77;2.25;;;;;;;;;;4994301;28;20108;-69
2023/12/20 13:36:14;;;;;;;10.70;1.52;;;;;;;;;;5004279;28;20042;-71
2023/12/20 13:38:41;;;;;;;9.88;1.85;;;;;;;;;;4994020;28;20062;-70
2023/12/20 13:41:07;;;;;;;13.50;1.80;;;;;;;;;;4999881;28;20041;-69
2023/12/20 13:43:35;;;;;;;13.98;1.60;;;;;;;;;;4995600;28;20681;-69
2023/12/20 13:46:03;;;;;;;7.55;1.80;;;;;;;;;;4998383;28;20092;-70
2023/12/20 13:48:29;;;;;;;14.27;1.95;;;;;;;;;;5003620;28;20072;-70
2023/12/20 13:50:55;;;;;;;10.40;1.67;;;;;;;;;;5002539;28;20525;-70
2023/12/20 13:53:21;;;;;;;10.90;1.70;;;;;;;;;;5006792;28;20121;-69
2023/12/20 13:55:47;;;;;;;13.90;2.03;;;;;;;;;;5004425;28;20468;-70
2023/12/20 13:58:13;;;;;;;12.35;2.03;;;;;;;;;;5006399;28;20643;-71
2023/12/20 14:00:41;;;;;;;8.32;1.80;;;;;;;;;;5005548;28;20144;-68
2023/12/20 14:03:07;;;;;;;13.40;2.22;;;;;;;;;;5006711;28;20046;-66
2023/12/20 14:05:33;;;;;;;12.45;1.75;;;;;;;;;;5005169;28;20048;-69
2023/12/20 14:08:00;;;;;;;9.07;1.33;;;;;;;;;;5006499;28;20099;-69
2023/12/20 14:10:26;;;;;;;14.95;1.85;;;;;;;;;;4998121;28;20722;-69
2023/12/20 14:12:52;;;;;;;11.10;1.80;;;;;;;;;;5007965;28;20065;-69
2023/12/20 14:15:19;;;;;;;9.57;1.85;;;;;;;;;;5007939;28;20046;-68
2023/12/20 14:17:45;;;;;;;7.63;1.50;;;;;;;;;;4992839;28;20042;-69
2023/12/20 14:20:14;;;;;;;11.73;1.90;;;;;;;;;;4994122;28;20126;-69
2023/12/20 14:22:43;;;;;;;8.65;1.85;;;;;;;;;;4994189;28;20129;-69
2023/12/20 14:25:13;;;;;;;14.27;1.67;;;;;;;;;;4994117;28;20756;-69
2023/12/20 14:27:39;;;;;;;11.68;1.80;;;;;;;;;;4994179;28;20381;-69